Startpagina
METAR-TAF:

METAR-TAF

Vliegvelden :

Fort Chipewyan, Alberta, Canada

breedte: 58-46N, lengte: 111-07W, hoogte: 232 m

Actueel weer

Dit bericht is 59 minuten geleden gemaakt, om 10:00 UTC
Wind 4 kt uit het oosten
Temperatuur -15°C
Vochtigheid 78%
Druk 1016 hPa
Zicht: 14.5 km
Geheel bewolkt op 8000 ft

METAR: CYPY 051000Z AUTO 08004KT 9SM OVC080 M15/M18 A3001 RMK SLP187

Tijdstip: 04:59 (10:59 UTC)

Verwachting

Dit bericht is 11 uur en het 21 minuten geleden gemaakt, om 23:38 UTC
Verwachting geldig van 05 om 00 UTC tot 05 om 06 UTC
Wind 8 kt uit het oosten
Zicht: 10 km
Weinig wolken op 5000 ft

TAF: CYPY 042338Z 0500/0506 10008KT P6SM FEW050 RMK FCST BASED ON AUTO OBS. NXT FCST WILL BE ISSUED AT 051145Z

Waarnemingen en weersverwachtingen van meer dan 4000 vliegvelden (METAR en TAF).

De beschikbare stations zijn de gele en rode punten op de kaart.

Ga met uw muis naar het station om de naam te zien.

Klik dan om waarnemingen en weersverwachtingen te zien.

kaart wijzigen: klik op de groene knoppen met een zwart kruis om in te zoomen, op de groene knop met een streepje om uit te zoomen of op de groene pijlen voor aangrenzende kaarten.


METAR-TAF: